createdAt,value
2022-12-23T00:07:14.117Z,95.0
2022-12-23T00:21:14.176Z,95.0
2022-12-23T00:35:14.146Z,95.0
2022-12-23T00:49:14.165Z,96.0
2022-12-23T01:03:14.288Z,95.0
2022-12-23T01:17:14.239Z,96.0
2022-12-23T01:31:14.194Z,95.0
2022-12-23T01:45:14.183Z,96.0
2022-12-23T01:59:14.150Z,96.0
2022-12-23T02:13:14.191Z,96.0
2022-12-23T02:27:14.168Z,96.0
2022-12-23T02:41:14.176Z,95.0
2022-12-23T02:55:14.179Z,94.0
2022-12-23T03:09:14.183Z,94.0
2022-12-23T03:23:14.211Z,95.0
2022-12-23T03:37:14.196Z,94.0
2022-12-23T03:51:14.180Z,95.0
2022-12-23T04:05:14.169Z,95.0
2022-12-23T04:19:14.186Z,95.0
2022-12-23T04:33:14.196Z,95.0
2022-12-23T04:47:14.184Z,95.0
2022-12-23T05:01:14.253Z,95.0
2022-12-23T05:15:14.181Z,95.0
2022-12-23T05:29:14.196Z,95.0
2022-12-23T05:43:14.215Z,95.0
2022-12-23T05:57:14.211Z,95.0
2022-12-23T06:11:14.271Z,96.0
2022-12-23T06:25:14.323Z,96.0
2022-12-23T06:39:14.316Z,96.0
2022-12-23T06:54:14.309Z,96.0
2022-12-23T07:09:14.375Z,95.0
2022-12-23T07:24:14.409Z,95.0
2022-12-23T07:39:14.454Z,95.0
2022-12-23T07:54:14.457Z,95.0
2022-12-23T08:09:14.448Z,93.0
2022-12-23T08:24:14.506Z,93.0
2022-12-23T08:39:14.503Z,92.0
2022-12-23T08:54:14.495Z,91.0
2022-12-23T09:09:14.504Z,87.0
2022-12-23T09:24:14.527Z,83.0
2022-12-23T09:39:14.539Z,82.0
2022-12-23T09:54:17.018Z,78.0
2022-12-23T10:09:14.613Z,79.0
2022-12-23T10:24:14.622Z,77.0
2022-12-23T10:39:14.631Z,75.0
2022-12-23T10:54:14.633Z,74.0
2022-12-23T11:09:14.685Z,74.0
2022-12-23T11:24:14.706Z,71.0
2022-12-23T11:39:14.724Z,70.0
2022-12-23T11:54:14.712Z,71.0
2022-12-23T12:09:14.715Z,70.0
2022-12-23T12:24:18.634Z,71.0
2022-12-23T12:39:14.838Z,71.0
2022-12-23T12:54:14.897Z,71.0
2022-12-23T13:09:14.871Z,70.0
2022-12-23T13:24:14.893Z,71.0
2022-12-23T13:39:14.933Z,74.0
2022-12-23T13:54:14.902Z,73.0
2022-12-23T14:09:14.908Z,74.0
2022-12-23T14:24:14.915Z,76.0
2022-12-23T14:39:14.934Z,79.0
2022-12-23T14:54:14.955Z,80.0
2022-12-23T15:10:14.952Z,81.0
2022-12-23T15:25:15.010Z,83.0
2022-12-23T15:40:15.114Z,85.0
2022-12-23T15:55:15.063Z,88.0
2022-12-23T16:10:15.140Z,90.0
2022-12-23T16:24:15.074Z,91.0
2022-12-23T16:38:15.105Z,91.0
2022-12-23T16:52:15.080Z,91.0
2022-12-23T17:06:15.135Z,92.0
2022-12-23T17:20:15.168Z,93.0
2022-12-23T17:34:15.194Z,93.0
2022-12-23T17:48:20.079Z,94.0
2022-12-23T18:02:15.248Z,94.0
2022-12-23T18:16:15.317Z,94.0
2022-12-23T18:30:15.242Z,95.0
2022-12-23T18:44:15.247Z,96.0
2022-12-23T18:58:15.289Z,95.0
2022-12-23T19:12:15.315Z,96.0
2022-12-23T19:26:15.285Z,96.0
2022-12-23T19:40:15.308Z,96.0
2022-12-23T19:54:15.292Z,97.0
2022-12-23T20:08:15.338Z,97.0
2022-12-23T20:22:15.398Z,96.0
2022-12-23T20:36:15.434Z,95.0
2022-12-23T20:50:15.370Z,95.0
2022-12-23T21:04:15.387Z,96.0
2022-12-23T21:18:15.417Z,96.0
2022-12-23T21:32:15.417Z,96.0
2022-12-23T21:46:15.494Z,96.0
2022-12-23T22:00:15.453Z,96.0
2022-12-23T22:14:15.450Z,96.0
2022-12-23T22:28:15.496Z,95.0
2022-12-23T22:42:15.559Z,95.0
2022-12-23T22:56:15.530Z,96.0
2022-12-23T23:10:15.520Z,96.0
2022-12-23T23:24:15.518Z,96.0
2022-12-23T23:38:15.552Z,96.0
2022-12-23T23:52:15.553Z,95.0
